Time;durP1;ratioP1;P1;durP2;ratioP2;P2;SDS_P1;SDS_P2;PMS_P1;PMS_P2;Temp;Humidity;BMP_temperature;BMP_pressure;BME280_temperature;BME280_humidity;BME280_pressure;Samples;Min_cycle;Max_cycle;Signal;HPM_P1;HPM_P2
2023/12/01 00:03:52;;;;;;;5.95;3.78;;;;;;;5.47;100.00;100902.72;10458787;28;20092;-67
2023/12/01 00:08:53;;;;;;;8.38;3.47;;;;;;;4.85;100.00;100808.41;10459241;28;20041;-67
2023/12/01 00:13:54;;;;;;;9.00;4.13;;;;;;;5.42;100.00;100922.50;10458871;28;20045;-67
2023/12/01 00:18:54;;;;;;;8.48;3.95;;;;;;;5.39;100.00;100957.81;10458217;28;20090;-68
2023/12/01 00:23:55;;;;;;;8.18;4.50;;;;;;;5.31;100.00;100983.91;10458390;28;20528;-67
2023/12/01 00:28:56;;;;;;;7.40;4.43;;;;;;;5.24;100.00;100995.88;10476511;28;20044;-67
2023/12/01 00:33:57;;;;;;;5.93;4.32;;;;;;;5.10;100.00;100957.44;10500188;28;20397;-68
2023/12/01 00:38:58;;;;;;;12.15;3.83;;;;;;;5.08;100.00;100969.88;10498736;28;20078;-68
2023/12/01 00:43:58;;;;;;;7.22;4.38;;;;;;;4.98;100.00;100969.72;10498912;28;20036;-67
2023/12/01 00:48:59;;;;;;;12.82;5.22;;;;;;;5.12;100.00;100975.75;10498955;28;20555;-67
2023/12/01 00:54:00;;;;;;;6.45;4.43;;;;;;;4.85;100.00;100944.47;10498812;28;20045;-68
2023/12/01 00:59:01;;;;;;;8.43;5.43;;;;;;;4.98;100.00;100958.38;10498122;28;20037;-68
2023/12/01 01:04:01;;;;;;;10.13;5.95;;;;;;;5.24;100.00;100972.19;10498602;28;20450;-67
2023/12/01 01:09:03;;;;;;;16.40;6.32;;;;;;;5.08;100.00;100932.16;10498118;28;20042;-67
2023/12/01 01:14:04;;;;;;;10.40;6.22;;;;;;;5.50;100.00;100983.31;10497324;28;20127;-67
2023/12/01 01:19:05;;;;;;;9.88;6.10;;;;;;;5.86;100.00;101011.25;10479318;28;20040;-68
2023/12/01 01:24:06;;;;;;;13.63;7.35;;;;;;;5.99;100.00;101018.22;10481327;28;20061;-67
2023/12/01 01:29:06;;;;;;;16.92;7.22;;;;;;;6.05;100.00;101020.38;10455783;28;20040;-68
2023/12/01 01:34:08;;;;;;;14.23;6.57;;;;;;;6.06;100.00;101017.59;10455229;28;20048;-68
2023/12/01 01:39:09;;;;;;;10.70;6.03;;;;;;;6.01;100.00;101029.47;10455734;28;20068;-68
2023/12/01 01:44:10;;;;;;;10.25;6.35;;;;;;;5.90;100.00;100996.84;10455760;28;20080;-68
2023/12/01 01:49:10;;;;;;;11.98;6.45;;;;;;;6.06;100.00;101014.13;10455300;28;20048;-68
2023/12/01 01:54:13;;;;;;;10.65;6.85;;;;;;;5.90;100.00;100982.84;10454047;28;20041;-68
2023/12/01 01:59:14;;;;;;;13.82;7.70;;;;;;;5.94;100.00;100993.03;10455642;28;20048;-68
2023/12/01 02:04:16;;;;;;;12.48;7.65;;;;;;;5.54;100.00;100926.78;10454984;28;20037;-68
2023/12/01 02:09:16;;;;;;;15.73;8.88;;;;;;;5.73;100.00;100966.53;10453811;28;20048;-67
2023/12/01 02:14:17;;;;;;;14.32;9.90;;;;;;;5.48;100.00;100922.84;10454528;28;20455;-67
2023/12/01 02:19:18;;;;;;;15.75;10.52;;;;;;;5.94;100.00;101000.09;10453703;28;20389;-67
2023/12/01 02:24:19;;;;;;;18.67;11.07;;;;;;;5.59;100.00;100950.13;10455100;28;20061;-68
2023/12/01 02:29:20;;;;;;;16.42;11.63;;;;;;;5.96;100.00;101002.63;10454312;28;20045;-67
2023/12/01 02:34:21;;;;;;;22.33;12.15;;;;;;;5.85;100.00;100993.72;10453411;28;20558;-67
2023/12/01 02:39:21;;;;;;;19.67;11.68;;;;;;;5.68;100.00;100952.91;10452543;28;20041;-67
2023/12/01 02:44:22;;;;;;;21.73;12.70;;;;;;;5.71;100.00;100926.31;10453330;28;20044;-68
2023/12/01 02:49:24;;;;;;;19.70;12.02;;;;;;;6.13;100.00;101004.75;10453423;28;20550;-69
2023/12/01 02:54:25;;;;;;;33.15;13.77;;;;;;;6.20;100.00;101010.38;10454451;28;20044;-68
2023/12/01 02:59:26;;;;;;;25.10;12.95;;;;;;;6.28;100.00;101027.28;10434481;28;20136;-68
2023/12/01 03:04:27;;;;;;;20.45;12.23;;;;;;;6.23;100.00;101003.06;10455357;28;20045;-68
2023/12/01 03:09:27;;;;;;;25.25;11.65;;;;;;;6.26;100.00;101015.16;10443905;28;20551;-68
2023/12/01 03:14:28;;;;;;;19.10;12.43;;;;;;;6.22;100.00;101022.47;10461635;28;20049;-66
2023/12/01 03:19:29;;;;;;;17.90;12.45;;;;;;;6.22;100.00;101006.63;10458769;28;20297;-69
2023/12/01 03:24:30;;;;;;;21.58;12.45;;;;;;;5.83;100.00;100929.72;10455326;28;20291;-68
2023/12/01 03:29:33;;;;;;;18.83;12.90;;;;;;;5.81;100.00;100944.84;10459672;28;20040;-66
2023/12/01 03:34:34;;;;;;;25.75;14.07;;;;;;;5.98;100.00;100987.50;10460243;28;20064;-66
2023/12/01 03:39:35;;;;;;;21.33;14.25;;;;;;;5.86;100.00;100991.94;10442517;28;20044;-66
2023/12/01 03:44:36;;;;;;;40.47;24.52;;;;;;;5.69;100.00;100983.56;10442249;28;20370;-66
2023/12/01 03:49:36;;;;;;;28.63;16.05;;;;;;;5.56;100.00;100972.28;10459376;28;20547;-66
2023/12/01 03:54:37;;;;;;;25.80;14.38;;;;;;;5.51;100.00;100976.28;10442252;28;20084;-67
2023/12/01 03:59:38;;;;;;;16.95;11.82;;;;;;;5.36;100.00;100981.78;10459088;28;20522;-66
2023/12/01 04:04:39;;;;;;;23.23;12.02;;;;;;;5.20;100.00;100976.00;10459277;28;20032;-66
2023/12/01 04:09:39;;;;;;;18.25;11.07;;;;;;;5.07;100.00;100970.81;10459784;28;20060;-67
2023/12/01 04:14:40;;;;;;;33.13;13.82;;;;;;;4.47;100.00;100919.22;10458533;28;20400;-68
2023/12/01 04:19:41;;;;;;;20.98;13.48;;;;;;;4.51;100.00;100944.34;10441777;28;20147;-67
2023/12/01 04:24:42;;;;;;;22.10;14.10;;;;;;;4.82;100.00;100982.38;10458960;28;20518;-67
2023/12/01 04:29:42;;;;;;;23.80;12.40;;;;;;;4.86;100.00;100988.25;10457854;28;20032;-67
2023/12/01 04:34:43;;;;;;;28.77;12.10;;;;;;;4.77;100.00;100987.97;10458358;28;20045;-68
2023/12/01 04:39:44;;;;;;;29.50;12.70;;;;;;;4.91;100.00;100991.41;10440460;28;20136;-67
2023/12/01 04:44:45;;;;;;;22.20;13.32;;;;;;;5.15;100.00;101007.13;10458390;28;20048;-67
2023/12/01 04:49:46;;;;;;;30.27;13.70;;;;;;;5.20;100.00;101004.97;10457783;28;20036;-67
2023/12/01 04:54:47;;;;;;;34.97;14.68;;;;;;;5.21;100.00;101004.84;10457614;28;20044;-68
2023/12/01 04:59:47;;;;;;;34.90;14.77;;;;;;;5.16;100.00;100970.13;10457526;28;20397;-67
2023/12/01 05:04:48;;;;;;;33.83;16.35;;;;;;;5.35;100.00;100974.81;10457136;28;20095;-67
2023/12/01 05:09:49;;;;;;;27.15;17.75;;;;;;;5.57;100.00;100987.16;10456260;28;20087;-67
2023/12/01 05:14:49;;;;;;;40.78;25.42;;;;;;;5.81;100.00;100991.47;10456657;28;20056;-68
2023/12/01 05:19:50;;;;;;;32.47;19.70;;;;;;;6.04;100.00;100987.03;10438658;28;20040;-67
2023/12/01 05:24:51;;;;;;;36.15;17.50;;;;;;;5.89;100.00;100925.75;10456108;28;20064;-68
2023/12/01 05:29:52;;;;;;;28.05;18.85;;;;;;;6.31;100.00;100968.97;10455454;28;20041;-68
2023/12/01 05:34:52;;;;;;;31.90;17.65;;;;;;;6.44;100.00;100968.81;10455346;28;20045;-68
2023/12/01 05:39:54;;;;;;;29.20;18.45;;;;;;;6.45;100.00;100915.06;10455442;28;20044;-69
2023/12/01 05:44:54;;;;;;;34.90;17.95;;;;;;;7.11;100.00;100962.31;10438444;28;20091;-68
2023/12/01 05:49:55;;;;;;;32.22;18.10;;;;;;;7.19;100.00;100925.53;10455367;28;20072;-68
2023/12/01 05:54:56;;;;;;;33.00;17.05;;;;;;;7.48;100.00;100953.91;10454717;28;20072;-68
2023/12/01 05:59:56;;;;;;;23.63;15.68;;;;;;;7.76;100.00;100939.94;10455203;28;20067;-68
2023/12/01 06:04:59;;;;;;;23.65;16.13;;;;;;;7.81;100.00;100928.97;10455258;28;20033;-68
2023/12/01 06:09:59;;;;;;;22.70;15.95;;;;;;;8.01;100.00;100928.00;10454777;28;20051;-68
2023/12/01 06:15:00;;;;;;;23.30;14.02;;;;;;;8.43;100.00;100927.78;10454065;28;20047;-68
2023/12/01 06:20:01;;;;;;;26.90;13.70;;;;;;;8.81;100.00;100904.88;10454397;28;20041;-66
2023/12/01 06:25:02;;;;;;;17.20;11.57;;;;;;;9.06;100.00;100907.88;10454936;28;20053;-66
2023/12/01 06:30:04;;;;;;;18.20;11.95;;;;;;;9.03;100.00;100874.53;10453661;28;20048;-66
2023/12/01 06:35:08;;;;;;;16.05;11.02;;;;;;;9.01;100.00;100876.53;10453396;28;20476;-66
2023/12/01 06:40:15;;;;;;;18.73;12.13;;;;;;;8.80;100.00;100838.81;10440844;28;20619;-66
2023/12/01 06:45:18;;;;;;;16.98;11.45;;;;;;;9.19;100.00;100911.06;10444888;28;20047;-66
2023/12/01 06:50:22;;;;;;;15.93;11.00;;;;;;;9.37;100.00;100882.78;10444654;28;20477;-66
2023/12/01 06:55:22;;;;;;;16.63;10.87;;;;;;;9.22;100.00;100830.41;10462050;28;20040;-67
2023/12/01 07:00:29;;;;;;;14.65;10.52;;;;;;;9.70;100.00;100891.13;10461316;28;20115;-66
2023/12/01 07:05:32;;;;;;;19.60;11.63;;;;;;;9.79;100.00;100886.75;10461727;28;20049;-67
2023/12/01 07:10:32;;;;;;;17.70;10.85;;;;;;;9.82;100.00;100878.50;10443887;28;20082;-67
2023/12/01 07:15:33;;;;;;;15.43;11.23;;;;;;;9.72;100.00;100843.22;10461365;28;20489;-67
2023/12/01 07:20:34;;;;;;;18.63;11.60;;;;;;;10.03;100.00;100847.19;10460873;28;20382;-67
2023/12/01 07:25:35;;;;;;;15.10;11.20;;;;;;;10.06;100.00;100809.72;10442456;28;20052;-67
2023/12/01 07:30:36;;;;;;;17.50;10.77;;;;;;;10.35;100.00;100835.22;10443004;28;20045;-68
2023/12/01 07:35:37;;;;;;;17.80;11.27;;;;;;;10.34;100.00;100846.81;10443177;28;20043;-67
2023/12/01 07:40:37;;;;;;;15.68;11.25;;;;;;;10.01;100.00;100782.78;10459899;28;20041;-68
2023/12/01 07:45:38;;;;;;;20.45;12.63;;;;;;;10.42;100.00;100822.97;10459674;28;20124;-68
2023/12/01 07:50:39;;;;;;;15.50;10.50;;;;;;;10.49;100.00;100804.56;10459086;28;20051;-68
2023/12/01 07:55:43;;;;;;;13.55;10.05;;;;;;;10.46;100.00;100795.09;10460002;28;20059;-68
2023/12/01 08:00:45;;;;;;;20.70;12.00;;;;;;;10.76;100.00;100742.47;10460007;28;20075;-68
2023/12/01 08:05:46;;;;;;;15.25;10.18;;;;;;;11.33;100.00;100801.16;10458979;28;20041;-68
2023/12/01 08:10:46;;;;;;;15.57;10.10;;;;;;;11.19;100.00;100812.44;10459397;28;20036;-67
2023/12/01 08:15:47;;;;;;;15.18;9.82;;;;;;;10.96;100.00;100797.03;10459070;28;20041;-67
2023/12/01 08:20:49;;;;;;;17.33;9.60;;;;;;;10.66;100.00;100716.00;10459639;28;20148;-68
2023/12/01 08:25:51;;;;;;;12.10;8.93;;;;;;;11.23;100.00;100778.38;10458119;28;20098;-68
2023/12/01 08:30:52;;;;;;;19.05;9.18;;;;;;;11.51;100.00;100765.63;10458450;28;20067;-68
2023/12/01 08:35:53;;;;;;;17.17;7.07;;;;;;;11.53;100.00;100747.69;10440424;28;20044;-66
2023/12/01 08:40:54;;;;;;;11.50;6.50;;;;;;;11.47;100.00;100735.03;10458322;28;20127;-65
2023/12/01 08:45:55;;;;;;;10.18;6.53;;;;;;;11.17;100.00;100676.13;10457972;28;20045;-65
2023/12/01 08:50:55;;;;;;;8.95;5.97;;;;;;;11.51;100.00;100709.75;10457646;28;20041;-64
2023/12/01 08:55:56;;;;;;;12.68;6.22;;;;;;;11.36;98.89;100649.22;10456916;28;20132;-64
2023/12/01 09:00:57;;;;;;;9.30;5.75;;;;;;;12.21;97.89;100710.09;10455557;28;20041;-66
2023/12/01 09:05:58;;;;;;;15.02;6.00;;;;;;;11.91;96.47;100662.88;10457122;28;20037;-63
2023/12/01 09:10:59;;;;;;;13.65;6.40;;;;;;;11.81;97.14;100702.94;10456866;28;20062;-64
2023/12/01 09:16:00;;;;;;;16.52;7.38;;;;;;;11.63;97.37;100692.47;10455323;28;20056;-66
2023/12/01 09:21:01;;;;;;;11.75;6.18;;;;;;;11.86;97.15;100656.22;10456200;28;20084;-65
2023/12/01 09:26:02;;;;;;;9.93;6.70;;;;;;;12.26;96.73;100641.13;10456824;28;20068;-65
2023/12/01 09:31:03;;;;;;;10.48;6.85;;;;;;;12.50;94.35;100650.91;10455410;28;20048;-65
2023/12/01 09:36:07;;;;;;;12.13;6.65;;;;;;;12.39;93.45;100639.78;10438238;28;20497;-65
2023/12/01 09:41:08;;;;;;;;;;;;;;;12.83;89.82;100631.22;10455305;28;20453;-65
2023/12/01 09:46:09;;;;;;;11.20;5.80;;;;;;;12.85;93.15;100616.72;10455686;28;20018;-67
2023/12/01 09:51:10;;;;;;;13.90;5.95;;;;;;;12.67;93.68;100594.84;10454508;28;20060;-65
2023/12/01 09:56:11;;;;;;;8.23;4.47;;;;;;;12.70;91.46;100595.31;10454611;28;20045;-65
2023/12/01 10:01:15;;;;;;;7.55;4.22;;;;;;;12.83;88.91;100588.56;10450328;28;20493;-67
2023/12/01 10:06:17;;;;;;;9.95;3.92;;;;;;;12.93;89.68;100584.69;10454508;28;20068;-66
2023/12/01 10:11:39;;;;;;;7.15;4.40;;;;;;;13.03;86.40;100563.91;10455252;28;20484;-66
2023/12/01 10:16:40;;;;;;;8.50;3.40;;;;;;;13.01;88.32;100565.97;10453981;28;20041;-67
2023/12/01 10:21:45;;;;;;;6.10;2.95;;;;;;;12.93;83.73;100578.53;10449308;28;20067;-64
2023/12/01 10:26:49;;;;;;;6.22;2.58;;;;;;;12.71;85.31;100526.81;10450623;28;20496;-65
2023/12/01 10:31:51;;;;;;;5.20;2.42;;;;;;;12.60;83.78;100503.28;10453355;28;20087;-65
2023/12/01 10:36:53;;;;;;;10.48;3.17;;;;;;;12.85;84.02;100562.56;10453141;28;20542;-65
2023/12/01 10:41:55;;;;;;;22.95;3.25;;;;;;;12.86;84.52;100567.72;10453784;28;20127;-65
2023/12/01 10:46:56;;;;;;;9.32;4.20;;;;;;;12.75;84.88;100552.97;10453397;28;20091;-65
2023/12/01 10:52:00;;;;;;;6.00;3.70;;;;;;;12.65;85.03;100552.34;10453185;28;20075;-65
2023/12/01 10:57:31;;;;;;;7.00;3.03;;;;;;;12.62;83.43;100544.72;10435535;28;20033;-65
2023/12/01 11:02:34;;;;;;;7.55;3.22;;;;;;;12.55;85.68;100539.25;10453488;28;20095;-65
2023/12/01 11:08:06;;;;;;;10.23;3.00;;;;;;;12.54;84.64;100534.94;10453077;28;20073;-65
2023/12/01 11:13:25;;;;;;;6.38;3.40;;;;;;;12.37;86.45;100496.09;10453165;28;20048;-64
2023/12/01 11:18:26;;;;;;;4.22;2.92;;;;;;;12.15;87.01;100489.72;10453282;28;20112;-65
2023/12/01 11:23:32;;;;;;;5.95;3.30;;;;;;;12.35;87.08;100530.06;10449744;28;20079;-66
2023/12/01 11:33:47;;;;;;;7.95;3.40;;;;;;;12.00;87.94;100470.16;10454743;28;20098;-66
2023/12/01 11:44:30;;;;;;;6.43;4.18;;;;;;;11.85;88.68;100473.56;10454056;28;20037;-66
2023/12/01 11:49:39;;;;;;;12.60;4.63;;;;;;;12.03;89.84;100513.25;10457684;28;20041;-65
2023/12/01 11:54:41;;;;;;;7.63;4.82;;;;;;;11.98;90.90;100541.38;10458868;28;20053;-64
2023/12/01 11:59:42;;;;;;;7.45;4.95;;;;;;;11.51;91.21;100494.25;10458454;28;20409;-64
2023/12/01 12:04:49;;;;;;;8.48;4.75;;;;;;;11.62;91.09;100537.31;10457658;28;20048;-65
2023/12/01 12:09:49;;;;;;;7.40;4.40;;;;;;;11.24;91.32;100503.44;10435238;28;20127;-66
2023/12/01 12:14:55;;;;;;;9.32;4.97;;;;;;;11.38;91.74;100535.50;10456053;28;20043;-65
2023/12/01 12:19:56;;;;;;;11.00;4.40;;;;;;;11.25;92.91;100550.31;10458007;28;20049;-64
2023/12/01 12:24:57;;;;;;;10.95;4.72;;;;;;;11.13;93.64;100560.47;10459484;28;20060;-64
2023/12/01 12:30:01;;;;;;;12.05;5.47;;;;;;;10.64;94.84;100509.94;10458070;28;20041;-65
2023/12/01 12:35:01;;;;;;;11.75;5.30;;;;;;;10.92;95.53;100575.09;10440157;28;20045;-64
2023/12/01 12:40:08;;;;;;;11.07;5.78;;;;;;;10.82;96.38;100587.69;10458036;28;20044;-65
2023/12/01 12:45:09;;;;;;;8.35;5.60;;;;;;;10.56;96.94;100569.22;10457593;28;20045;-65
2023/12/01 12:50:10;;;;;;;17.35;6.05;;;;;;;10.59;97.51;100598.09;10446063;28;20048;-64
2023/12/01 12:55:11;;;;;;;31.02;12.60;;;;;;;10.44;97.97;100597.03;10454248;28;20135;-64
2023/12/01 13:00:12;;;;;;;46.80;23.75;;;;;;;10.33;98.54;100598.19;10456965;28;20131;-64
2023/12/01 13:05:14;;;;;;;28.85;20.73;;;;;;;9.81;99.02;100530.09;10456516;28;20068;-64
2023/12/01 13:10:15;;;;;;;15.55;12.55;;;;;;;9.88;99.52;100564.75;10457043;28;20114;-65
2023/12/01 13:15:16;;;;;;;18.65;11.55;;;;;;;9.74;100.00;100566.16;10448929;28;20045;-66
2023/12/01 13:20:17;;;;;;;23.13;8.85;;;;;;;9.19;100.00;100508.16;10455535;28;20045;-64
2023/12/01 13:25:18;;;;;;;27.65;9.82;;;;;;;9.44;100.00;100564.00;10455847;28;20060;-65
2023/12/01 13:30:18;;;;;;;32.22;11.05;;;;;;;9.31;100.00;100588.28;10456964;28;20049;-64
2023/12/01 13:35:19;;;;;;;30.52;8.68;;;;;;;9.16;100.00;100587.97;10454794;28;20420;-65
2023/12/01 13:40:21;;;;;;;20.58;8.95;;;;;;;8.97;100.00;100583.66;10455810;28;20049;-65
2023/12/01 13:45:22;;;;;;;24.63;7.60;;;;;;;8.84;100.00;100593.81;10456392;28;20045;-65
2023/12/01 13:50:23;;;;;;;13.38;6.47;;;;;;;8.56;100.00;100571.84;10455096;28;20052;-65
2023/12/01 13:55:24;;;;;;;20.77;5.82;;;;;;;7.96;100.00;100503.50;10436913;28;20037;-65
2023/12/01 14:00:25;;;;;;;14.50;6.25;;;;;;;7.98;100.00;100527.97;10455226;28;20049;-65
2023/12/01 14:05:27;;;;;;;13.02;6.90;;;;;;;8.15;100.00;100561.59;10455385;28;20040;-65
2023/12/01 14:10:27;;;;;;;8.23;5.90;;;;;;;7.42;100.00;100446.91;10454815;28;20488;-65
2023/12/01 14:15:28;;;;;;;11.13;6.10;;;;;;;7.82;100.00;100544.47;10437337;28;20041;-65
2023/12/01 14:20:30;;;;;;;7.40;5.43;;;;;;;8.01;100.00;100584.06;10454867;28;20082;-64
2023/12/01 14:25:31;;;;;;;10.93;6.20;;;;;;;8.05;100.00;100589.03;10444175;28;20037;-64
2023/12/01 14:30:33;;;;;;;9.43;6.13;;;;;;;7.98;100.00;100588.81;10436471;28;20036;-65
2023/12/01 14:35:34;;;;;;;9.60;5.63;;;;;;;7.94;100.00;100598.84;10453603;28;20497;-64
2023/12/01 14:40:34;;;;;;;13.70;5.50;;;;;;;7.63;100.00;100576.25;10453561;28;20108;-64
2023/12/01 14:45:35;;;;;;;14.55;5.82;;;;;;;7.74;100.00;100613.94;10453282;28;20047;-64
2023/12/01 14:50:36;;;;;;;10.38;5.88;;;;;;;7.40;100.00;100559.91;10453935;28;20091;-64
2023/12/01 14:55:37;;;;;;;17.05;6.55;;;;;;;7.52;100.00;100595.75;10452996;28;20041;-65
2023/12/01 15:00:37;;;;;;;9.27;5.93;;;;;;;7.62;100.00;100601.03;10457224;28;20051;-64
2023/12/01 15:05:38;;;;;;;15.00;6.85;;;;;;;7.53;100.00;100592.13;10461221;28;20408;-64
2023/12/01 15:10:40;;;;;;;21.65;11.07;;;;;;;7.46;100.00;100607.72;10461669;28;20102;-64
2023/12/01 15:15:41;;;;;;;11.75;8.30;;;;;;;7.28;100.00;100602.31;10461120;28;20047;-64
2023/12/01 15:20:42;;;;;;;15.32;8.02;;;;;;;6.76;100.00;100541.03;10462119;28;20079;-64
2023/12/01 15:25:43;;;;;;;11.95;7.50;;;;;;;6.92;100.00;100555.50;10460593;28;20075;-64
2023/12/01 15:30:43;;;;;;;13.00;7.68;;;;;;;7.11;100.00;100579.25;10461074;28;20119;-65
2023/12/01 15:35:44;;;;;;;14.35;7.22;;;;;;;7.22;100.00;100578.28;10459225;28;20045;-65
2023/12/01 15:40:45;;;;;;;18.23;7.20;;;;;;;7.21;100.00;100576.59;10460188;28;20043;-65
2023/12/01 15:45:46;;;;;;;17.27;7.93;;;;;;;6.98;100.00;100545.19;10459763;28;20033;-65
2023/12/01 15:50:47;;;;;;;26.77;17.48;;;;;;;7.18;100.00;100584.81;10459684;28;20068;-63
2023/12/01 15:55:47;;;;;;;31.40;12.93;;;;;;;7.04;100.00;100586.06;10459910;28;20135;-64
2023/12/01 16:00:48;;;;;;;21.75;12.90;;;;;;;6.60;100.00;100532.81;10457762;28;20041;-64
2023/12/01 16:05:49;;;;;;;22.10;10.00;;;;;;;6.44;100.00;100553.66;10459410;28;20040;-65
2023/12/01 16:10:50;;;;;;;18.70;8.40;;;;;;;6.54;100.00;100571.16;10458190;28;20073;-64
2023/12/01 16:15:51;;;;;;;14.85;8.50;;;;;;;6.46;100.00;100572.78;10458486;28;20048;-65
2023/12/01 16:20:52;;;;;;;18.27;8.27;;;;;;;5.89;100.00;100494.19;10458018;28;20051;-67
2023/12/01 16:25:54;;;;;;;11.38;7.25;;;;;;;6.17;100.00;100549.81;10457759;28;20049;-64
2023/12/01 16:30:55;;;;;;;13.77;7.80;;;;;;;6.26;100.00;100558.75;10456320;28;20052;-66
2023/12/01 16:35:55;;;;;;;16.85;8.63;;;;;;;6.30;100.00;100544.31;10457562;28;20614;-65
2023/12/01 16:40:56;;;;;;;10.30;7.15;;;;;;;6.23;100.00;100530.81;10456942;28;20049;-65
2023/12/01 16:45:57;;;;;;;15.20;7.25;;;;;;;5.66;100.00;100445.28;10456794;28;20400;-65
2023/12/01 16:50:58;;;;;;;17.15;7.72;;;;;;;5.64;100.00;100461.22;10457178;28;20529;-65
2023/12/01 16:55:58;;;;;;;14.70;8.73;;;;;;;6.03;100.00;100511.47;10456315;28;20516;-66
2023/12/01 17:00:59;;;;;;;11.30;7.35;;;;;;;6.04;100.00;100507.03;10456714;28;20071;-64
2023/12/01 17:06:00;;;;;;;20.35;7.15;;;;;;;6.05;100.00;100503.44;10456951;28;20124;-64
2023/12/01 17:11:01;;;;;;;8.80;6.47;;;;;;;5.99;100.00;100478.44;10452579;28;20075;-64
2023/12/01 17:16:02;;;;;;;9.05;6.70;;;;;;;6.06;100.00;100471.63;10455656;28;20037;-65
2023/12/01 17:21:04;;;;;;;10.52;6.10;;;;;;;6.04;100.00;100451.63;10453803;28;20057;-64
2023/12/01 17:26:12;;;;;;;10.85;6.75;;;;;;;6.25;100.00;100456.81;10453176;28;20504;-65
2023/12/01 17:31:13;;;;;;;9.30;6.55;;;;;;;6.32;100.00;100457.94;10444210;28;20398;-64
2023/12/01 17:36:13;;;;;;;11.45;6.68;;;;;;;6.42;100.00;100453.50;10455666;28;20041;-64
2023/12/01 17:41:15;;;;;;;12.50;6.28;;;;;;;6.32;100.00;100424.47;10455067;28;20049;-63
2023/12/01 17:46:16;;;;;;;9.55;6.50;;;;;;;6.51;100.00;100436.81;10452116;28;20412;-65
2023/12/01 17:51:17;;;;;;;8.98;6.75;;;;;;;6.51;100.00;100439.47;10454048;28;20037;-64
2023/12/01 17:56:20;;;;;;;8.15;6.53;;;;;;;6.14;100.00;100366.28;10448623;28;20094;-65
2023/12/01 18:01:23;;;;;;;10.27;6.38;;;;;;;6.49;100.00;100425.59;10435715;28;20060;-66
2023/12/01 18:06:23;;;;;;;13.80;6.88;;;;;;;6.30;100.00;100392.09;10433094;28;20040;-66
2023/12/01 18:11:24;;;;;;;9.00;5.95;;;;;;;6.46;100.00;100417.97;10436330;28;20033;-68
2023/12/01 18:16:25;;;;;;;8.90;6.38;;;;;;;6.42;100.00;100408.63;10433214;28;20155;-65
2023/12/01 18:21:26;;;;;;;7.55;5.40;;;;;;;6.45;100.00;100403.06;10444649;28;20052;-65
2023/12/01 18:26:27;;;;;;;9.32;5.47;;;;;;;6.51;100.00;100401.69;10453956;28;20056;-65
2023/12/01 18:31:28;;;;;;;11.05;5.63;;;;;;;6.47;100.00;100387.94;10453628;28;20535;-65
2023/12/01 18:36:29;;;;;;;8.45;5.30;;;;;;;6.46;100.00;100393.34;10454324;28;20508;-65
2023/12/01 18:41:30;;;;;;;7.03;4.75;;;;;;;6.44;100.00;100388.22;10454046;28;20037;-64
2023/12/01 18:46:31;;;;;;;7.88;4.65;;;;;;;6.43;100.00;100385.72;10453176;28;20143;-65
2023/12/01 18:51:32;;;;;;;7.72;5.30;;;;;;;6.36;100.00;100388.91;10456866;28;20043;-65
2023/12/01 18:56:32;;;;;;;10.18;6.43;;;;;;;6.34;100.00;100384.75;10495100;28;20070;-65
2023/12/01 19:01:33;;;;;;;8.15;5.90;;;;;;;6.28;100.00;100380.03;10472246;28;20040;-65
2023/12/01 19:06:34;;;;;;;9.32;6.53;;;;;;;6.27;100.00;100371.28;10452996;28;20152;-65
2023/12/01 19:11:36;;;;;;;10.02;6.65;;;;;;;6.27;100.00;100366.00;10452736;28;20037;-64
2023/12/01 19:16:37;;;;;;;10.48;6.32;;;;;;;6.27;100.00;100371.28;10453214;28;20527;-67
2023/12/01 19:21:38;;;;;;;8.95;6.30;;;;;;;6.30;100.00;100376.28;10453620;28;20060;-65
2023/12/01 19:26:39;;;;;;;11.07;6.30;;;;;;;6.33;100.00;100375.16;10434596;28;20056;-65
2023/12/01 19:31:40;;;;;;;9.50;6.18;;;;;;;6.19;100.00;100344.75;10453587;28;20390;-65
2023/12/01 19:36:41;;;;;;;9.50;6.95;;;;;;;6.27;100.00;100371.28;10454256;28;20478;-65
2023/12/01 19:41:44;;;;;;;9.02;6.22;;;;;;;6.17;100.00;100354.63;10435588;28;20500;-65
2023/12/01 19:46:44;;;;;;;8.73;5.85;;;;;;;6.24;100.00;100355.72;10455219;28;20036;-65
2023/12/01 19:51:45;;;;;;;10.57;5.93;;;;;;;6.21;100.00;100357.81;10464394;28;20051;-65
2023/12/01 19:56:46;;;;;;;11.05;5.00;;;;;;;5.80;100.00;100294.63;10501406;28;20040;-65
2023/12/01 20:01:47;;;;;;;11.98;4.97;;;;;;;6.24;100.00;100352.28;10501548;28;20408;-65
2023/12/01 20:06:48;;;;;;;6.57;4.57;;;;;;;6.19;100.00;100328.94;10500256;28;20037;-65
2023/12/01 20:11:48;;;;;;;6.82;4.63;;;;;;;6.33;100.00;100340.88;10500167;28;20127;-65
2023/12/01 20:16:49;;;;;;;6.60;4.65;;;;;;;6.35;100.00;100337.13;10500190;28;20040;-65
2023/12/01 20:21:50;;;;;;;6.65;4.70;;;;;;;5.98;100.00;100268.44;10501338;28;20075;-65
2023/12/01 20:26:51;;;;;;;9.57;4.97;;;;;;;6.27;100.00;100322.97;10499592;28;20123;-65
2023/12/01 20:31:52;;;;;;;7.38;4.63;;;;;;;6.30;100.00;100327.97;10499714;28;20044;-64
2023/12/01 20:36:52;;;;;;;7.72;4.60;;;;;;;6.00;100.00;100282.31;10481800;28;20032;-64
2023/12/01 20:41:53;;;;;;;6.78;4.80;;;;;;;6.01;100.00;100291.06;10500204;28;20089;-66
2023/12/01 20:46:54;;;;;;;9.57;5.07;;;;;;;6.35;100.00;100342.41;10499625;28;20048;-64
2023/12/01 20:51:55;;;;;;;5.68;4.55;;;;;;;6.39;100.00;100343.78;10499611;28;20089;-64
2023/12/01 20:56:56;;;;;;;8.15;4.85;;;;;;;6.03;100.00;100279.41;10498944;28;20047;-64
2023/12/01 21:01:57;;;;;;;8.38;4.78;;;;;;;6.09;100.00;100291.19;10498085;28;20052;-64
2023/12/01 21:06:58;;;;;;;6.10;4.97;;;;;;;6.33;100.00;100333.78;10498599;28;20068;-65
2023/12/01 21:11:58;;;;;;;7.82;5.00;;;;;;;6.25;100.00;100311.72;10498335;28;20044;-65
2023/12/01 21:16:59;;;;;;;7.07;5.13;;;;;;;6.38;100.00;100336.84;10497530;28;20139;-66
2023/12/01 21:22:00;;;;;;;8.52;5.47;;;;;;;6.30;100.00;100334.06;10497835;28;20060;-65
2023/12/01 21:27:01;;;;;;;6.70;5.30;;;;;;;6.36;100.00;100345.88;10480084;28;20044;-65
2023/12/01 21:32:02;;;;;;;9.60;5.75;;;;;;;6.39;100.00;100333.22;10497576;28;20066;-64
2023/12/01 21:37:03;;;;;;;7.72;5.25;;;;;;;6.43;100.00;100331.13;10496878;28;20036;-65
2023/12/01 21:42:04;;;;;;;6.63;4.70;;;;;;;6.46;100.00;100333.50;10497189;28;20040;-65
2023/12/01 21:47:05;;;;;;;7.50;5.10;;;;;;;6.17;100.00;100292.16;10497435;28;20052;-65
2023/12/01 21:52:05;;;;;;;10.82;4.65;;;;;;;6.48;100.00;100325.44;10496571;28;20063;-64
2023/12/01 21:57:07;;;;;;;6.43;4.32;;;;;;;6.55;100.00;100343.22;10496740;28;20036;-65
2023/12/01 22:02:08;;;;;;;7.43;4.50;;;;;;;5.89;100.00;100224.41;10496102;28;20535;-65
2023/12/01 22:07:09;;;;;;;7.07;4.32;;;;;;;6.15;100.00;100266.91;10497185;28;20051;-66
2023/12/01 22:12:10;;;;;;;6.65;4.90;;;;;;;6.13;100.00;100261.78;10495987;28;20043;-65
2023/12/01 22:17:11;;;;;;;8.60;5.13;;;;;;;6.40;100.00;100316.44;10495513;28;20044;-65
2023/12/01 22:22:11;;;;;;;11.00;5.38;;;;;;;6.01;100.00;100262.88;10495846;28;20060;-65
2023/12/01 22:27:12;;;;;;;9.70;5.13;;;;;;;6.29;100.00;100306.03;10495485;28;20044;-65
2023/12/01 22:32:13;;;;;;;12.63;5.05;;;;;;;6.22;100.00;100302.28;10496128;28;20044;-65
2023/12/01 22:37:14;;;;;;;10.82;5.47;;;;;;;6.05;100.00;100268.72;10495197;28;20123;-65
2023/12/01 22:42:15;;;;;;;7.40;5.35;;;;;;;5.99;100.00;100261.38;10495121;28;20182;-65
2023/12/01 22:47:16;;;;;;;10.02;5.68;;;;;;;5.94;100.00;100253.88;10496286;28;20048;-65
2023/12/01 22:52:17;;;;;;;9.63;5.60;;;;;;;6.10;100.00;100271.75;10495031;28;20032;-65
2023/12/01 22:57:17;;;;;;;9.57;5.50;;;;;;;6.08;100.00;100271.09;10495336;28;20037;-65
2023/12/01 23:02:18;;;;;;;12.80;5.50;;;;;;;6.00;100.00;100269.13;10495443;28;20046;-65